Time;durP1;ratioP1;P1;durP2;ratioP2;P2;SDS_P1;SDS_P2;PMS_P1;PMS_P2;Temp;Humidity;BMP_temperature;BMP_pressure;BME280_temperature;BME280_humidity;BME280_pressure;Samples;Min_cycle;Max_cycle;Signal;HPM_P1;HPM_P2
2021/08/24 00:02:08;;;;;;;1.33;1.23;;;;;;;14.76;71.68;101507.16;5055237;28;20277;-80
2021/08/24 00:04:34;;;;;;;4.80;1.40;;;;;;;14.73;72.38;101501.97;5055175;28;20225;-80
2021/08/24 00:07:01;;;;;;;1.33;1.10;;;;;;;14.72;71.60;101512.53;5054632;28;20279;-79
2021/08/24 00:09:27;;;;;;;1.10;1.00;;;;;;;14.61;71.93;101510.97;5054733;28;20626;-79
2021/08/24 00:11:54;;;;;;;1.30;1.00;;;;;;;14.60;71.79;101511.84;5054112;28;20254;-78
2021/08/24 00:14:21;;;;;;;1.40;1.07;;;;;;;14.57;73.11;101482.13;5053993;28;20294;-78
2021/08/24 00:16:48;;;;;;;1.40;0.97;;;;;;;14.52;72.96;101497.09;5054709;28;20217;-79
2021/08/24 00:19:15;;;;;;;1.00;0.80;;;;;;;14.40;73.23;101496.41;5054415;28;20262;-78
2021/08/24 00:21:42;;;;;;;2.33;1.03;;;;;;;14.38;73.20;101484.22;5055215;28;20248;-79
2021/08/24 00:24:11;;;;;;;1.90;1.43;;;;;;;14.29;73.36;101485.22;5054504;28;20279;-79
2021/08/24 00:26:37;;;;;;;1.30;1.20;;;;;;;14.24;73.77;101485.31;5054250;28;20660;-79
2021/08/24 00:29:05;;;;;;;2.13;1.50;;;;;;;14.13;74.36;101468.00;5055551;28;20252;-80
2021/08/24 00:31:31;;;;;;;1.20;1.03;;;;;;;14.12;73.86;101479.41;5055610;28;20274;-80
2021/08/24 00:33:59;;;;;;;2.60;1.37;;;;;;;14.09;74.12;101482.94;5055162;28;20218;-80
2021/08/24 00:36:25;;;;;;;1.63;1.03;;;;;;;14.12;73.95;101485.53;5054881;28;20227;-78
2021/08/24 00:38:52;;;;;;;1.13;1.10;;;;;;;14.01;73.91;101475.22;5055175;28;20255;-80
2021/08/24 00:41:19;;;;;;;1.90;1.27;;;;;;;14.00;74.05;101480.47;5054990;28;20225;-80
2021/08/24 00:43:47;;;;;;;1.13;1.10;;;;;;;14.05;73.41;101492.66;5055091;28;20776;-80
2021/08/24 00:46:21;;;;;;;3.17;1.20;;;;;;;14.03;73.61;101497.06;5055859;28;20288;-79
2021/08/24 00:48:48;;;;;;;1.63;1.20;;;;;;;14.07;73.13;101509.25;5055012;28;20602;-78
2021/08/24 00:51:19;;;;;;;1.47;1.27;;;;;;;14.12;73.26;101517.03;5054957;28;20204;-80
2021/08/24 00:53:47;;;;;;;1.40;1.30;;;;;;;14.10;73.19;101524.94;5054555;28;20225;-79
2021/08/24 00:56:14;;;;;;;1.20;1.10;;;;;;;14.07;72.73;101535.50;5055656;28;20222;-80
2021/08/24 00:58:41;;;;;;;1.70;1.50;;;;;;;14.02;73.57;101523.31;5054921;28;20217;-81
2021/08/24 01:01:09;;;;;;;1.27;0.90;;;;;;;14.02;72.86;101531.22;5054820;28;20221;-79
2021/08/24 01:03:38;;;;;;;1.37;1.27;;;;;;;14.03;72.46;101551.31;5054825;28;20205;-79
2021/08/24 01:06:09;;;;;;;1.30;1.20;;;;;;;14.06;72.23;101572.28;5054995;28;20205;-79
2021/08/24 01:08:47;;;;;;;1.50;1.40;;;;;;;13.98;72.50;101546.13;5053512;28;20623;-79
2021/08/24 01:11:20;;;;;;;1.90;1.17;;;;;;;13.98;72.67;101553.16;5053716;28;20220;-78
2021/08/24 01:14:01;;;;;;;1.20;1.00;;;;;;;13.99;72.52;101558.34;5052562;28;20710;-79
2021/08/24 01:16:38;;;;;;;3.10;1.20;;;;;;;13.97;72.62;101565.38;5052718;28;20616;-79
2021/08/24 01:19:28;;;;;;;2.57;1.10;;;;;;;13.90;73.11;101551.50;5053475;28;20280;-79
2021/08/24 01:22:15;;;;;;;5.10;1.40;;;;;;;13.78;73.56;101535.94;5052257;28;21024;-79
2021/08/24 01:24:50;;;;;;;2.20;1.20;;;;;;;13.81;73.73;101538.50;5052533;28;20217;-79
2021/08/24 01:27:29;;;;;;;1.30;1.20;;;;;;;13.76;73.79;101524.59;5051389;28;20642;-78
2021/08/24 01:30:12;;;;;;;2.30;1.50;;;;;;;13.72;74.29;101522.03;5052337;28;20212;-80
2021/08/24 01:33:03;;;;;;;1.30;1.10;;;;;;;13.66;74.11;101517.75;5052069;28;20706;-80
2021/08/24 01:36:00;;;;;;;2.00;1.43;;;;;;;13.62;74.30;101506.44;5052214;28;20297;-78
2021/08/24 01:38:30;;;;;;;1.50;1.40;;;;;;;13.63;74.13;101526.50;5052656;28;20201;-79
2021/08/24 01:41:03;;;;;;;1.30;1.17;;;;;;;13.61;74.64;101503.81;5051990;28;20247;-79
2021/08/24 01:43:38;;;;;;;2.03;1.47;;;;;;;13.61;74.52;101516.94;5052231;28;20204;-79
2021/08/24 01:46:15;;;;;;;1.60;1.40;;;;;;;13.56;74.56;101510.88;5051746;28;20616;-78
2021/08/24 01:48:46;;;;;;;3.70;1.17;;;;;;;13.52;74.54;101504.81;5051921;28;20239;-78
2021/08/24 01:51:17;;;;;;;3.33;1.37;;;;;;;13.50;75.11;101491.72;5051279;28;20728;-79
2021/08/24 01:53:51;;;;;;;1.97;1.27;;;;;;;13.46;75.17;101503.16;5051251;28;20314;-79
2021/08/24 01:56:21;;;;;;;3.70;1.50;;;;;;;13.41;75.08;101502.34;5052185;28;20205;-80
2021/08/24 01:58:51;;;;;;;3.20;1.30;;;;;;;13.27;75.52;101484.13;5051574;28;20219;-79
2021/08/24 02:01:22;;;;;;;1.57;1.47;;;;;;;13.35;75.99;101475.34;5051639;28;20281;-78
2021/08/24 02:03:52;;;;;;;3.23;1.03;;;;;;;13.31;76.90;101459.63;5051269;28;20229;-78
2021/08/24 02:06:24;;;;;;;2.20;1.40;;;;;;;13.31;76.62;101459.63;5051773;28;20213;-78
2021/08/24 02:08:58;;;;;;;1.30;1.13;;;;;;;13.28;76.32;101475.38;5051709;28;20282;-80
2021/08/24 02:11:29;;;;;;;1.20;1.10;;;;;;;13.31;77.07;101448.28;5051818;28;20642;-79
2021/08/24 02:13:59;;;;;;;4.37;1.37;;;;;;;13.38;78.10;101404.47;5050908;28;20871;-78
2021/08/24 02:16:29;;;;;;;1.90;1.40;;;;;;;13.33;77.17;101445.66;5051911;28;20197;-78
2021/08/24 02:18:59;;;;;;;2.13;1.30;;;;;;;13.32;77.56;101442.16;5051785;28;20254;-79
2021/08/24 02:21:31;;;;;;;4.20;1.73;;;;;;;13.23;77.36;101445.72;5051475;28;20237;-80
2021/08/24 02:24:03;;;;;;;1.50;1.40;;;;;;;13.25;76.80;101461.44;5050877;28;20585;-79
2021/08/24 02:26:31;;;;;;;2.40;1.80;;;;;;;13.22;76.73;101467.59;5050914;28;20204;-78
2021/08/24 02:28:59;;;;;;;1.97;1.50;;;;;;;13.24;76.62;101478.94;5051097;28;20745;-80
2021/08/24 02:31:30;;;;;;;1.67;1.23;;;;;;;13.24;78.52;101439.63;5051564;28;20208;-79
2021/08/24 02:34:05;;;;;;;1.97;1.40;;;;;;;13.27;77.84;101446.56;5050387;28;20228;-78
2021/08/24 02:36:34;;;;;;;1.37;1.27;;;;;;;13.24;78.35;101426.50;5051472;28;20259;-78
2021/08/24 02:39:06;;;;;;;2.50;1.33;;;;;;;13.07;77.77;101452.94;5051742;28;20254;-79
2021/08/24 02:41:39;;;;;;;1.77;1.20;;;;;;;13.11;78.38;101427.56;5051681;28;20239;-79
2021/08/24 02:44:11;;;;;;;2.10;1.50;;;;;;;13.00;78.30;101460.88;5052209;28;20327;-80
2021/08/24 02:46:41;;;;;;;3.20;1.30;;;;;;;12.90;78.85;101429.56;5052693;28;20261;-80
2021/08/24 02:49:11;;;;;;;1.20;1.10;;;;;;;12.95;79.82;101412.94;5051356;28;20209;-79
2021/08/24 02:51:39;;;;;;;4.43;1.50;;;;;;;12.97;80.00;101404.16;5050873;28;20201;-79
2021/08/24 02:54:11;;;;;;;3.17;1.27;;;;;;;12.98;78.82;101437.31;5051601;28;20331;-78
2021/08/24 02:56:38;;;;;;;3.00;1.60;;;;;;;12.90;79.28;101441.78;5052374;28;20203;-80
2021/08/24 02:59:04;;;;;;;2.07;1.53;;;;;;;13.01;80.57;101416.31;5050591;28;20254;-80
2021/08/24 03:01:31;;;;;;;2.43;1.20;;;;;;;13.05;80.32;101433.75;5050773;28;20285;-78
2021/08/24 03:03:57;;;;;;;4.37;1.73;;;;;;;13.10;81.26;101394.34;5050650;28;20232;-79
2021/08/24 03:06:24;;;;;;;2.03;1.17;;;;;;;12.99;79.20;101446.94;5051530;28;20208;-80
2021/08/24 03:08:51;;;;;;;1.20;1.10;;;;;;;12.93;79.50;101435.66;5051261;28;20238;-78
2021/08/24 03:11:23;;;;;;;2.03;1.83;;;;;;;12.92;79.26;101460.97;5051564;28;20200;-79
2021/08/24 03:13:58;;;;;;;2.00;1.50;;;;;;;12.76;78.83;101493.50;5050504;28;20274;-78
2021/08/24 03:16:30;;;;;;;1.90;1.60;;;;;;;12.79;79.01;101468.13;5050652;28;20212;-79
2021/08/24 03:19:01;;;;;;;2.40;1.30;;;;;;;12.81;78.85;101487.31;5050947;28;20212;-79
2021/08/24 03:21:31;;;;;;;1.67;1.33;;;;;;;12.85;79.75;101446.25;5050236;28;20265;-80
2021/08/24 03:23:59;;;;;;;2.50;1.20;;;;;;;12.77;78.61;101497.88;5049518;28;20219;-79
2021/08/24 03:26:29;;;;;;;3.77;1.60;;;;;;;12.56;80.03;101457.91;5050390;28;20204;-78
2021/08/24 03:28:56;;;;;;;1.73;1.60;;;;;;;12.54;79.31;101485.00;5049956;28;20215;-79
2021/08/24 03:31:25;;;;;;;1.40;1.30;;;;;;;12.50;80.03;101464.06;5050189;28;20216;-78
2021/08/24 03:33:51;;;;;;;2.30;1.40;;;;;;;12.52;79.88;101451.81;5049518;28;20242;-79
2021/08/24 03:36:17;;;;;;;2.53;1.63;;;;;;;12.48;79.02;101491.16;5050730;28;20274;-80
2021/08/24 03:38:44;;;;;;;1.70;1.60;;;;;;;12.49;81.45;101424.81;5049972;28;20758;-78
2021/08/24 03:41:12;;;;;;;3.17;1.30;;;;;;;12.41;79.78;101465.94;5049353;28;20858;-80
2021/08/24 03:43:40;;;;;;;1.10;1.10;;;;;;;12.32;80.54;101453.78;5049188;28;20213;-79
2021/08/24 03:46:07;;;;;;;2.13;1.70;;;;;;;12.32;79.84;101477.34;5050554;28;20207;-79
2021/08/24 03:48:33;;;;;;;1.53;1.23;;;;;;;12.27;80.80;101450.38;5050799;28;20685;-78
2021/08/24 03:51:00;;;;;;;1.50;1.40;;;;;;;12.31;80.90;101437.22;5053599;28;20258;-80
2021/08/24 03:53:26;;;;;;;2.00;1.37;;;;;;;12.34;82.11;101411.88;5053496;28;20257;-79
2021/08/24 03:55:52;;;;;;;3.20;1.70;;;;;;;12.36;81.20;101439.78;5054177;28;20211;-80
2021/08/24 03:58:19;;;;;;;2.17;1.40;;;;;;;12.43;81.13;101446.69;5053921;28;20236;-79
2021/08/24 04:00:48;;;;;;;1.97;1.40;;;;;;;12.55;82.21;101434.34;5054123;28;20267;-78
2021/08/24 04:03:15;;;;;;;2.63;1.50;;;;;;;12.55;81.56;101434.34;5053777;28;20230;-79
2021/08/24 04:05:41;;;;;;;1.63;1.50;;;;;;;12.47;80.55;101477.22;5053457;28;20224;-79
2021/08/24 04:08:08;;;;;;;2.17;1.63;;;;;;;12.37;81.39;101472.06;5053379;28;20212;-80
2021/08/24 04:10:34;;;;;;;2.10;1.53;;;;;;;12.23;82.00;101444.28;5053981;28;20665;-79
2021/08/24 04:13:01;;;;;;;2.27;1.57;;;;;;;12.42;84.53;101373.41;5052656;28;20199;-79
2021/08/24 04:15:28;;;;;;;3.13;1.90;;;;;;;12.38;80.99;101479.06;5053620;28;20223;-79
2021/08/24 04:17:56;;;;;;;3.60;2.20;;;;;;;12.34;81.22;101485.19;5054037;28;20283;-78
2021/08/24 04:20:22;;;;;;;1.70;1.60;;;;;;;12.24;81.22;101487.88;5053986;28;20223;-78
2021/08/24 04:22:51;;;;;;;2.20;1.50;;;;;;;12.19;82.18;101454.78;5053681;28;20291;-79
2021/08/24 04:25:18;;;;;;;2.10;1.40;;;;;;;12.18;81.22;101503.66;5053417;28;20298;-80
2021/08/24 04:27:45;;;;;;;1.80;1.63;;;;;;;12.22;81.75;101483.56;5052794;28;20203;-80
2021/08/24 04:30:13;;;;;;;1.70;1.60;;;;;;;12.23;80.94;101507.13;5053596;28;20207;-79
2021/08/24 04:32:43;;;;;;;1.80;1.70;;;;;;;12.14;82.24;101467.06;5053595;28;20212;-78
2021/08/24 04:35:11;;;;;;;2.47;1.40;;;;;;;12.25;83.62;101426.81;5053986;28;20224;-79
2021/08/24 04:37:37;;;;;;;3.03;1.60;;;;;;;12.27;82.57;101473.94;5053879;28;20691;-80
2021/08/24 04:40:05;;;;;;;2.37;2.13;;;;;;;12.17;82.69;101486.22;5053535;28;20266;-78
2021/08/24 04:42:31;;;;;;;2.30;1.20;;;;;;;12.15;82.40;101489.72;5052770;28;20228;-79
2021/08/24 04:44:58;;;;;;;2.17;1.60;;;;;;;12.24;82.06;101506.22;5051788;28;20279;-79
2021/08/24 04:47:25;;;;;;;1.60;1.50;;;;;;;12.19;82.08;101508.03;5052388;28;20556;-78
2021/08/24 04:49:51;;;;;;;2.10;1.70;;;;;;;12.32;84.32;101451.16;5053440;28;20257;-80
2021/08/24 04:52:19;;;;;;;4.20;2.00;;;;;;;12.37;82.79;101486.03;5053268;28;21191;-80
2021/08/24 04:54:46;;;;;;;2.73;1.70;;;;;;;12.39;83.09;101480.78;5053332;28;20224;-78
2021/08/24 04:57:12;;;;;;;5.33;2.00;;;;;;;12.50;83.75;101477.16;5053574;28;20207;-79
2021/08/24 04:59:38;;;;;;;2.93;1.43;;;;;;;12.51;82.11;101540.91;5054351;28;20207;-79
2021/08/24 05:02:05;;;;;;;2.00;1.80;;;;;;;12.57;83.09;101517.28;5052088;28;20231;-80
2021/08/24 05:04:32;;;;;;;2.70;1.63;;;;;;;12.56;82.67;101540.84;5052966;28;20281;-80
2021/08/24 05:06:58;;;;;;;2.77;1.60;;;;;;;12.60;83.06;101525.09;5052871;28;20210;-80
2021/08/24 05:09:26;;;;;;;1.97;1.50;;;;;;;12.75;85.68;101455.97;5053503;28;20222;-78
2021/08/24 05:11:52;;;;;;;1.90;1.50;;;;;;;12.77;83.38;101518.81;5053076;28;20212;-80
2021/08/24 05:14:19;;;;;;;1.63;1.53;;;;;;;12.79;82.57;101567.69;5053852;28;20236;-79
2021/08/24 05:16:45;;;;;;;2.07;1.87;;;;;;;12.71;83.26;101546.81;5052933;28;20214;-80
2021/08/24 05:19:12;;;;;;;2.77;1.93;;;;;;;12.58;83.39;101534.72;5053653;28;20209;-79
2021/08/24 05:21:38;;;;;;;2.93;2.03;;;;;;;12.71;85.40;101459.50;5053914;28;20208;-79
2021/08/24 05:24:05;;;;;;;2.93;1.77;;;;;;;12.63;82.78;101543.41;5053225;28;20241;-79
2021/08/24 05:26:33;;;;;;;2.17;1.70;;;;;;;12.74;85.10;101477.78;5053186;28;20206;-79
2021/08/24 05:28:59;;;;;;;2.30;1.80;;;;;;;12.84;85.67;101468.97;5052961;28;20211;-80
2021/08/24 05:31:26;;;;;;;3.80;2.10;;;;;;;12.81;84.83;101499.56;5053326;28;20208;-79
2021/08/24 05:33:52;;;;;;;4.70;2.00;;;;;;;12.69;82.97;101569.53;5053661;28;20229;-80
2021/08/24 05:36:19;;;;;;;2.17;1.83;;;;;;;12.71;84.89;101502.28;5052831;28;20262;-79
2021/08/24 05:38:45;;;;;;;2.43;2.23;;;;;;;12.81;84.95;101503.03;5053130;28;20211;-80
2021/08/24 05:41:12;;;;;;;3.13;2.00;;;;;;;12.69;83.20;101574.78;5053223;28;20229;-80
2021/08/24 05:43:40;;;;;;;1.63;1.53;;;;;;;12.84;84.76;101510.88;5053088;28;20230;-80
2021/08/24 05:46:09;;;;;;;3.17;1.90;;;;;;;12.97;85.67;101489.78;5053531;28;20253;-80
2021/08/24 05:48:36;;;;;;;2.07;1.63;;;;;;;13.04;85.17;101497.53;5052359;28;20209;-80
2021/08/24 05:51:09;;;;;;;2.43;1.80;;;;;;;12.93;83.01;101595.53;5051992;28;20208;-80
2021/08/24 05:53:35;;;;;;;2.10;1.77;;;;;;;13.02;84.26;101550.84;5051587;28;20212;-78
2021/08/24 05:56:02;;;;;;;5.00;2.67;;;;;;;13.11;84.99;101546.38;5051714;28;20579;-79
2021/08/24 05:58:28;;;;;;;1.73;1.30;;;;;;;13.16;84.45;101537.59;5050757;28;20219;-78
2021/08/24 06:00:56;;;;;;;1.60;1.50;;;;;;;13.21;85.61;101536.66;5051655;28;20256;-80
2021/08/24 06:03:23;;;;;;;1.60;1.50;;;;;;;13.23;85.34;101547.13;5050903;28;20227;-78
2021/08/24 06:05:49;;;;;;;2.27;2.00;;;;;;;13.24;84.82;101540.97;5051647;28;20279;-79
2021/08/24 06:08:16;;;;;;;2.13;1.93;;;;;;;13.15;82.16;101640.72;5051201;28;20204;-80
2021/08/24 06:10:42;;;;;;;2.60;2.03;;;;;;;13.10;80.94;101709.81;5051210;28;20214;-79
2021/08/24 06:13:09;;;;;;;1.93;1.83;;;;;;;13.17;83.78;101610.13;5049858;28;20223;-78
2021/08/24 06:15:36;;;;;;;1.97;1.77;;;;;;;13.14;83.42;101600.53;5051335;28;20273;-78
2021/08/24 06:18:04;;;;;;;2.20;1.93;;;;;;;13.18;81.45;101678.28;5051849;28;20234;-79
2021/08/24 06:20:31;;;;;;;2.03;1.90;;;;;;;13.23;81.22;101678.22;5051344;28;20207;-80
2021/08/24 06:22:57;;;;;;;4.73;2.03;;;;;;;13.27;81.45;101691.28;5050268;28;20224;-79
2021/08/24 06:25:24;;;;;;;2.60;2.40;;;;;;;13.33;81.25;101698.25;5051705;28;20220;-79
2021/08/24 06:27:51;;;;;;;1.90;1.80;;;;;;;13.31;81.33;101690.41;5051073;28;20269;-78
2021/08/24 06:30:18;;;;;;;3.97;2.23;;;;;;;13.30;81.47;101701.78;5051164;28;20207;-79
2021/08/24 06:32:47;;;;;;;2.30;2.10;;;;;;;13.33;80.88;101714.00;5050946;28;20632;-78
2021/08/24 06:35:18;;;;;;;2.60;2.40;;;;;;;13.40;81.42;101707.81;5052445;28;20257;-78
2021/08/24 06:37:45;;;;;;;3.07;2.30;;;;;;;13.45;80.95;101713.00;5051728;28;20212;-77
2021/08/24 06:40:13;;;;;;;3.13;2.33;;;;;;;13.47;80.81;101730.44;5051298;28;20216;-80
2021/08/24 06:42:41;;;;;;;3.33;3.00;;;;;;;13.51;80.57;101739.16;5050210;28;20318;-80
2021/08/24 06:45:09;;;;;;;2.40;2.20;;;;;;;13.56;80.15;101757.47;5050748;28;20234;-78
2021/08/24 06:47:35;;;;;;;2.70;2.50;;;;;;;13.57;80.59;101753.97;5050981;28;20273;-78
2021/08/24 06:50:01;;;;;;;3.57;2.33;;;;;;;13.61;82.80;101690.94;5050594;28;20261;-79
2021/08/24 06:52:29;;;;;;;2.93;2.27;;;;;;;13.63;81.36;101712.78;5050904;28;20219;-80
2021/08/24 06:54:55;;;;;;;3.20;2.60;;;;;;;13.67;81.46;101713.63;5050310;28;20228;-79
2021/08/24 06:57:22;;;;;;;3.73;2.43;;;;;;;13.71;81.62;101723.22;5049521;28;20675;-80
2021/08/24 06:59:48;;;;;;;2.53;2.20;;;;;;;13.76;81.24;101731.03;5050424;28;20270;-79
2021/08/24 07:02:15;;;;;;;2.63;1.93;;;;;;;13.80;81.72;101715.22;5050271;28;20232;-79
2021/08/24 07:04:42;;;;;;;3.07;2.10;;;;;;;13.83;81.92;101695.94;5049738;28;20289;-79
2021/08/24 07:07:08;;;;;;;3.13;2.43;;;;;;;13.92;81.64;101714.22;5050366;28;20292;-79
2021/08/24 07:09:36;;;;;;;2.47;2.27;;;;;;;13.97;81.70;101732.53;5050637;28;20207;-81
2021/08/24 07:12:03;;;;;;;2.77;2.57;;;;;;;14.03;81.02;101751.72;5049925;28;20693;-80
2021/08/24 07:14:29;;;;;;;4.23;2.17;;;;;;;14.09;80.40;101772.66;5050369;28;20228;-79
2021/08/24 07:16:55;;;;;;;2.47;2.27;;;;;;;14.14;81.28;101753.34;5050612;28;20670;-80
2021/08/24 07:19:22;;;;;;;2.67;2.40;;;;;;;14.20;81.57;101740.13;5050875;28;20204;-80
2021/08/24 07:21:48;;;;;;;2.63;2.20;;;;;;;14.26;80.62;101769.78;5050988;28;20212;-79
2021/08/24 07:24:15;;;;;;;2.40;2.17;;;;;;;14.32;80.91;101754.84;5050192;28;20233;-79
2021/08/24 07:26:42;;;;;;;2.93;2.00;;;;;;;14.35;80.97;101773.19;5053746;28;20681;-81
2021/08/24 07:29:09;;;;;;;2.57;1.90;;;;;;;14.39;80.53;101791.53;5055068;28;20206;-79
2021/08/24 07:31:37;;;;;;;3.43;2.37;;;;;;;14.44;80.83;101799.34;5053873;28;20573;-79
2021/08/24 07:34:04;;;;;;;3.30;2.20;;;;;;;14.48;80.36;101785.28;5052392;28;20298;-79
2021/08/24 07:36:31;;;;;;;2.60;2.40;;;;;;;14.54;81.10;101777.31;5053146;28;20216;-79
2021/08/24 07:38:57;;;;;;;3.30;2.50;;;;;;;14.54;81.18;101758.06;5054613;28;20254;-81
2021/08/24 07:41:24;;;;;;;4.50;1.90;;;;;;;14.64;81.78;101757.91;5055104;28;20210;-80
2021/08/24 07:43:51;;;;;;;3.17;2.87;;;;;;;14.70;80.67;101781.47;5054387;28;20236;-80
2021/08/24 07:46:19;;;;;;;3.77;2.57;;;;;;;14.76;79.35;101830.47;5055124;28;20205;-79
2021/08/24 07:48:46;;;;;;;2.50;2.30;;;;;;;14.81;80.01;101812.03;5054561;28;20214;-79
2021/08/24 07:51:12;;;;;;;3.43;2.30;;;;;;;14.88;79.88;101817.19;5054716;28;20206;-80
2021/08/24 07:53:39;;;;;;;2.30;2.10;;;;;;;14.96;80.07;101810.91;5054673;28;20212;-80
2021/08/24 07:56:09;;;;;;;2.67;2.23;;;;;;;15.02;79.35;101823.97;5054600;28;20213;-80
2021/08/24 07:58:35;;;;;;;2.10;1.90;;;;;;;15.07;81.35;101759.88;5054176;28;20712;-81
2021/08/24 08:01:03;;;;;;;2.73;2.50;;;;;;;15.16;80.02;101824.63;5054627;28;20228;-81
2021/08/24 08:03:29;;;;;;;2.33;2.10;;;;;;;15.22;79.49;101848.22;5053782;28;20688;-80
2021/08/24 08:05:56;;;;;;;2.40;2.00;;;;;;;15.29;78.61;101870.88;5054270;28;20201;-81
2021/08/24 08:08:22;;;;;;;2.87;2.00;;;;;;;15.36;78.77;101861.16;5054454;28;20205;-81
2021/08/24 08:10:49;;;;;;;3.13;1.30;;;;;;;15.35;79.67;101846.25;5054429;28;20259;-80
2021/08/24 08:13:16;;;;;;;3.23;2.03;;;;;;;15.44;78.46;101866.28;5054591;28;20716;-81
2021/08/24 08:15:42;;;;;;;1.87;1.67;;;;;;;15.58;80.11;101831.81;5055786;28;20276;-82
2021/08/24 08:18:10;;;;;;;2.80;1.63;;;;;;;15.65;78.98;101859.78;5055281;28;20201;-80
2021/08/24 08:20:38;;;;;;;3.97;1.70;;;;;;;15.74;77.81;101895.63;5052773;28;20694;-80
2021/08/24 08:23:05;;;;;;;2.30;1.80;;;;;;;15.83;79.90;101840.19;5052395;28;20197;-80
2021/08/24 08:25:32;;;;;;;2.20;1.40;;;;;;;15.92;78.02;101884.81;5051889;28;20648;-80
2021/08/24 08:27:59;;;;;;;2.60;1.37;;;;;;;16.04;77.54;101912.69;5052498;28;20212;-81
2021/08/24 08:30:25;;;;;;;2.23;1.53;;;;;;;16.15;76.48;101946.72;5052393;28;20228;-82
2021/08/24 08:32:52;;;;;;;3.87;2.10;;;;;;;16.23;78.19;101907.94;5052795;28;20209;-80
2021/08/24 08:35:20;;;;;;;1.97;1.37;;;;;;;16.28;76.13;101958.78;5051417;28;20232;-79
2021/08/24 08:37:47;;;;;;;2.03;1.27;;;;;;;16.35;77.23;101949.00;5052446;28;20206;-78
2021/08/24 08:40:16;;;;;;;3.20;1.30;;;;;;;16.39;76.88;101924.31;5052594;28;20276;-79
2021/08/24 08:42:56;;;;;;;1.80;1.20;;;;;;;16.48;75.16;102024.31;5052781;28;20206;-83
2021/08/24 08:45:30;;;;;;;2.37;1.40;;;;;;;16.51;73.21;102100.72;5053131;28;20225;-84
2021/08/24 08:48:10;;;;;;;1.63;1.30;;;;;;;16.53;71.69;102166.56;5053199;28;20822;-83
2021/08/24 08:50:45;;;;;;;1.77;1.10;;;;;;;16.48;71.95;102146.44;5052858;28;20240;-83
2021/08/24 08:53:21;;;;;;;2.50;1.30;;;;;;;16.47;72.16;102142.06;5053310;28;20213;-82
2021/08/24 08:55:53;;;;;;;1.10;1.00;;;;;;;16.48;70.96;102191.25;5054219;28;20213;-83
2021/08/24 08:58:32;;;;;;;1.70;1.30;;;;;;;16.52;71.23;102186.81;5053812;28;20194;-83
2021/08/24 09:01:04;;;;;;;4.80;1.23;;;;;;;16.56;71.07;102193.75;5054610;28;20610;-84
2021/08/24 09:03:45;;;;;;;1.57;1.13;;;;;;;16.58;70.13;102222.75;5052639;28;20226;-83
2021/08/24 09:06:16;;;;;;;2.00;1.27;;;;;;;16.62;70.45;102211.25;5052986;28;20722;-84
2021/08/24 09:08:43;;;;;;;1.53;0.97;;;;;;;16.71;70.62;102197.94;5053767;28;20206;-83
2021/08/24 09:11:10;;;;;;;1.43;1.13;;;;;;;16.79;70.46;102213.63;5054642;28;20268;-84
2021/08/24 09:13:45;;;;;;;1.57;1.07;;;;;;;16.86;70.19;102207.38;5052991;28;20201;-83
2021/08/24 09:16:22;;;;;;;1.90;1.10;;;;;;;16.98;68.73;102257.28;5054172;28;20214;-83
2021/08/24 09:18:54;;;;;;;1.30;0.90;;;;;;;17.14;68.89;102270.22;5054383;28;20281;-83
2021/08/24 09:21:25;;;;;;;1.83;1.17;;;;;;;17.25;68.10;102299.97;5055068;28;20219;-83
2021/08/24 09:23:54;;;;;;;1.70;1.10;;;;;;;17.31;67.66;102309.56;5053056;28;20278;-83
2021/08/24 09:26:47;;;;;;;3.07;1.20;;;;;;;17.35;65.68;102378.09;5053698;28;20253;-83
2021/08/24 09:29:14;;;;;;;1.07;0.97;;;;;;;17.40;66.42;102356.91;5053356;28;20206;-83
2021/08/24 09:31:42;;;;;;;2.23;1.20;;;;;;;17.50;65.76;102379.59;5053366;28;20229;-83
2021/08/24 09:34:11;;;;;;;2.17;1.03;;;;;;;17.60;64.27;102428.75;5054491;28;20225;-84
2021/08/24 09:36:40;;;;;;;1.33;0.73;;;;;;;17.64;65.98;102384.66;5054242;28;20205;-84
2021/08/24 09:39:07;;;;;;;1.17;0.90;;;;;;;17.69;66.03;102348.47;5054589;28;20216;-84
2021/08/24 09:41:36;;;;;;;1.20;1.10;;;;;;;17.73;63.58;102447.91;5055383;28;20215;-83
2021/08/24 09:44:20;;;;;;;1.43;1.00;;;;;;;17.71;65.18;102443.53;5054857;28;20229;-83
2021/08/24 09:46:49;;;;;;;1.33;0.90;;;;;;;17.74;64.31;102420.59;5056152;28;20202;-84
2021/08/24 09:49:32;;;;;;;0.70;0.70;;;;;;;17.89;64.92;102408.03;5056283;28;20291;-85
2021/08/24 09:52:02;;;;;;;1.50;1.03;;;;;;;18.01;63.76;102439.53;5055196;28;20213;-84
2021/08/24 09:54:33;;;;;;;1.53;1.00;;;;;;;18.01;63.50;102456.25;5054666;28;20228;-83
2021/08/24 09:57:04;;;;;;;1.13;0.90;;;;;;;18.06;60.35;102557.47;5054147;28;20567;-82
2021/08/24 09:59:35;;;;;;;0.70;0.70;;;;;;;18.10;60.84;102571.53;5053032;28;20207;-83
2021/08/24 10:02:03;;;;;;;1.23;0.90;;;;;;;18.12;63.10;102473.72;5052627;28;20670;-83
2021/08/24 10:04:30;;;;;;;1.70;0.83;;;;;;;18.12;62.57;102464.00;5052541;28;20267;-83
2021/08/24 10:07:02;;;;;;;1.70;1.10;;;;;;;18.14;62.51;102493.06;5053390;28;20206;-83
2021/08/24 10:09:32;;;;;;;1.10;0.90;;;;;;;18.12;61.78;102511.56;5054329;28;20222;-84
2021/08/24 10:12:20;;;;;;;2.00;0.87;;;;;;;18.14;63.36;102434.91;5054872;28;20581;-84
2021/08/24 10:14:47;;;;;;;0.90;0.83;;;;;;;18.15;63.09;102453.34;5054051;28;20740;-85
2021/08/24 10:17:25;;;;;;;1.17;0.97;;;;;;;18.24;61.09;102534.28;5053565;28;20235;-83
2021/08/24 10:19:52;;;;;;;1.20;1.00;;;;;;;18.32;60.67;102547.38;5054074;28;20207;-84
2021/08/24 10:22:29;;;;;;;3.90;1.37;;;;;;;18.35;58.48;102616.91;5055924;28;20245;-83
2021/08/24 10:25:00;;;;;;;1.10;0.90;;;;;;;18.35;58.34;102643.34;5057646;28;20236;-84
2021/08/24 10:27:30;;;;;;;2.30;0.97;;;;;;;18.35;59.46;102593.13;5057862;28;20265;-83
2021/08/24 10:30:00;;;;;;;1.00;0.70;;;;;;;18.42;61.10;102517.22;5054958;28;20205;-83
2021/08/24 10:32:30;;;;;;;1.70;1.00;;;;;;;18.57;58.57;102590.09;5055394;28;20205;-84
2021/08/24 10:35:00;;;;;;;0.87;0.70;;;;;;;18.78;59.46;102584.41;5056496;28;20720;-83
2021/08/24 10:37:47;;;;;;;0.93;0.83;;;;;;;19.02;58.22;102580.44;5054728;28;20628;-83
2021/08/24 10:40:26;;;;;;;1.10;0.83;;;;;;;19.21;56.83;102652.47;5054011;28;20208;-84
2021/08/24 10:43:22;;;;;;;1.80;0.87;;;;;;;19.29;57.44;102662.03;5052606;28;20574;-84
2021/08/24 10:46:07;;;;;;;1.37;0.67;;;;;;;19.39;57.36;102643.28;5054016;28;20323;-81
2021/08/24 10:48:36;;;;;;;1.53;0.70;;;;;;;19.56;57.06;102642.03;5056018;28;20217;-82
2021/08/24 10:51:09;;;;;;;1.57;0.80;;;;;;;19.69;55.32;102703.59;5055143;28;20213;-81
2021/08/24 10:53:45;;;;;;;1.67;0.83;;;;;;;19.86;55.88;102721.81;5057471;28;20205;-82
2021/08/24 10:56:18;;;;;;;0.87;0.80;;;;;;;19.94;53.54;102802.94;5057212;28;20236;-82
2021/08/24 10:58:53;;;;;;;1.10;0.87;;;;;;;20.01;53.30;102804.53;5057283;28;20223;-81
2021/08/24 11:01:27;;;;;;;1.07;0.90;;;;;;;20.00;52.46;102855.84;5055127;28;20673;-85
2021/08/24 11:04:07;;;;;;;1.03;0.80;;;;;;;19.97;52.98;102831.16;5052647;28;20236;-83
2021/08/24 11:06:41;;;;;;;1.90;1.00;;;;;;;20.05;53.90;102797.41;5054728;28;20204;-82
2021/08/24 11:09:19;;;;;;;1.07;0.97;;;;;;;20.03;52.86;102799.22;5053414;28;20258;-81
2021/08/24 11:11:54;;;;;;;3.40;0.90;;;;;;;20.00;54.58;102755.09;5051282;28;20237;-81
2021/08/24 11:14:32;;;;;;;1.97;0.90;;;;;;;20.06;56.64;102642.72;5052161;28;20224;-82
2021/08/24 11:17:09;;;;;;;1.63;0.80;;;;;;;20.16;54.37;102725.59;5052477;28;20892;-82
2021/08/24 11:19:51;;;;;;;1.87;0.90;;;;;;;20.30;54.73;102742.06;5052604;28;20266;-81
2021/08/24 11:22:25;;;;;;;0.97;0.70;;;;;;;20.57;54.01;102732.59;5052648;28;20343;-79
2021/08/24 11:25:02;;;;;;;1.00;0.73;;;;;;;20.82;51.73;102799.25;5051685;28;20283;-80
2021/08/24 11:27:40;;;;;;;1.30;1.00;;;;;;;21.00;52.11;102805.88;5051710;28;20311;-81
2021/08/24 11:30:15;;;;;;;0.80;0.80;;;;;;;21.31;50.88;102844.09;5051404;28;20217;-82
2021/08/24 11:32:44;;;;;;;1.13;0.90;;;;;;;21.33;50.73;102836.97;5053836;28;20214;-83
2021/08/24 11:35:15;;;;;;;0.90;0.70;;;;;;;21.75;49.27;102901.44;5052561;28;20232;-83
2021/08/24 11:37:49;;;;;;;1.50;0.90;;;;;;;21.83;47.30;102993.44;5055462;28;20201;-82